createdAt,value
2017-09-25T00:00:55.811Z,0
2017-09-25T00:02:05.873Z,0
2017-09-25T00:03:16.221Z,0
2017-09-25T00:04:26.577Z,0
2017-09-25T00:05:36.613Z,0
2017-09-25T00:06:46.951Z,0
2017-09-25T00:07:57.317Z,0
2017-09-25T00:09:07.674Z,0
2017-09-25T00:10:17.715Z,0
2017-09-25T00:11:27.761Z,0
2017-09-25T00:12:38.108Z,0
2017-09-25T00:13:48.434Z,0
2017-09-25T00:14:58.778Z,0
2017-09-25T00:16:09.150Z,0
2017-09-25T00:17:19.496Z,0
2017-09-25T00:18:29.881Z,0
2017-09-25T00:19:39.907Z,0
2017-09-25T00:20:49.941Z,0
2017-09-25T00:22:00.267Z,0
2017-09-25T00:23:10.315Z,0
2017-09-25T00:24:20.673Z,0
2017-09-25T00:25:31.028Z,0
2017-09-25T00:26:41.374Z,0
2017-09-25T00:27:51.102Z,0
2017-09-25T00:29:01.124Z,0
2017-09-25T00:30:11.711Z,0
2017-09-25T00:31:22.067Z,0
2017-09-25T00:32:32.424Z,0
2017-09-25T00:33:42.461Z,0
2017-09-25T00:34:52.508Z,0
2017-09-25T00:36:02.869Z,0
2017-09-25T00:37:12.899Z,0
2017-09-25T00:38:23.248Z,0
2017-09-25T00:39:33.604Z,0
2017-09-25T00:40:43.963Z,0
2017-09-25T00:41:53.982Z,0
2017-09-25T00:43:04.321Z,0
2017-09-25T00:44:14.671Z,0
2017-09-25T00:45:25.038Z,0
2017-09-25T00:46:35.072Z,0
2017-09-25T00:47:45.411Z,0
2017-09-25T00:48:55.754Z,0
2017-09-25T00:50:05.794Z,0
2017-09-25T00:51:16.162Z,0
2017-09-25T00:52:25.878Z,0
2017-09-25T00:53:35.947Z,0
2017-09-25T00:54:46.288Z,0
2017-09-25T00:55:56.336Z,0
2017-09-25T00:57:06.692Z,0
2017-09-25T00:58:17.035Z,0
2017-09-25T00:59:26.479Z,0
2017-09-25T01:00:36.819Z,0
2017-09-25T01:01:46.856Z,0
2017-09-25T01:02:57.196Z,0
2017-09-25T01:04:07.546Z,0
2017-09-25T01:05:17.899Z,0
2017-09-25T01:06:27.948Z,0
2017-09-25T01:07:38.288Z,0
2017-09-25T01:08:48.313Z,0
2017-09-25T01:09:58.660Z,0
2017-09-25T01:11:09.059Z,0
2017-09-25T01:12:19.390Z,0
2017-09-25T01:13:29.425Z,0
2017-09-25T01:14:39.774Z,0
2017-09-25T01:15:49.501Z,0
2017-09-25T01:16:59.861Z,0
2017-09-25T01:18:10.209Z,0
2017-09-25T01:19:20.561Z,0
2017-09-25T01:20:30.585Z,0
2017-09-25T01:21:40.603Z,0
2017-09-25T01:22:50.644Z,0
2017-09-25T01:24:00.674Z,0
2017-09-25T01:25:11.028Z,0
2017-09-25T01:26:21.390Z,0
2017-09-25T01:27:31.730Z,0
2017-09-25T01:28:41.809Z,0
2017-09-25T01:29:51.839Z,0
2017-09-25T01:31:02.177Z,0
2017-09-25T01:32:12.524Z,0
2017-09-25T01:33:22.860Z,0
2017-09-25T01:34:33.270Z,0
2017-09-25T01:35:43.619Z,0
2017-09-25T01:36:53.952Z,0
2017-09-25T01:38:03.980Z,0
2017-09-25T01:39:14.329Z,0
2017-09-25T01:40:23.725Z,0
2017-09-25T01:41:34.068Z,0
2017-09-25T01:42:44.409Z,0
2017-09-25T01:43:54.763Z,0
2017-09-25T01:45:04.809Z,0
2017-09-25T01:46:15.143Z,0
2017-09-25T01:47:25.483Z,0
2017-09-25T01:48:35.845Z,0
2017-09-25T01:49:45.860Z,0
2017-09-25T01:50:55.883Z,0
2017-09-25T01:52:05.638Z,0
2017-09-25T01:53:15.992Z,0
2017-09-25T01:54:26.011Z,0
2017-09-25T01:55:36.352Z,0
2017-09-25T01:56:46.711Z,0
2017-09-25T01:57:57.106Z,0
2017-09-25T01:59:07.451Z,0
2017-09-25T02:00:17.156Z,0
2017-09-25T02:01:27.188Z,0
2017-09-25T02:02:37.540Z,0
2017-09-25T02:03:47.633Z,0
2017-09-25T02:04:57.987Z,0
2017-09-25T02:06:08.350Z,0
2017-09-25T02:07:18.376Z,0
2017-09-25T02:08:28.743Z,0
2017-09-25T02:09:39.099Z,0
2017-09-25T02:10:49.132Z,0
2017-09-25T02:11:59.164Z,0
2017-09-25T02:13:09.521Z,0
2017-09-25T02:14:19.877Z,0
2017-09-25T02:15:30.229Z,0
2017-09-25T02:16:40.274Z,0
2017-09-25T02:17:50.617Z,0
2017-09-25T02:19:00.657Z,0
2017-09-25T02:20:10.986Z,0
2017-09-25T02:21:21.347Z,0
2017-09-25T02:22:31.699Z,0
2017-09-25T02:23:42.046Z,0
2017-09-25T02:24:52.060Z,0
2017-09-25T02:26:02.416Z,0
2017-09-25T02:27:12.832Z,0
2017-09-25T02:28:22.850Z,0
2017-09-25T02:29:32.880Z,0
2017-09-25T02:30:42.912Z,0
2017-09-25T02:31:53.274Z,0
2017-09-25T02:33:03.679Z,0
2017-09-25T02:34:14.042Z,0
2017-09-25T02:35:23.754Z,0
2017-09-25T02:36:34.098Z,0
2017-09-25T02:37:44.460Z,0
2017-09-25T02:38:54.856Z,0
2017-09-25T02:40:05.191Z,0
2017-09-25T02:41:15.222Z,0
2017-09-25T02:42:25.255Z,0
2017-09-25T02:43:35.602Z,0
2017-09-25T02:44:45.996Z,0
2017-09-25T02:45:56.370Z,0
2017-09-25T02:47:06.728Z,0
2017-09-25T02:48:17.082Z,0
2017-09-25T02:49:27.423Z,0
2017-09-25T02:50:37.819Z,0
2017-09-25T02:51:48.181Z,0
2017-09-25T02:52:58.533Z,0
2017-09-25T02:54:08.897Z,0
2017-09-25T02:55:19.236Z,0
2017-09-25T02:56:29.593Z,0
2017-09-25T02:57:39.939Z,0
2017-09-25T02:58:50.284Z,0
2017-09-25T03:00:00.627Z,0
2017-09-25T03:01:10.653Z,0
2017-09-25T03:02:21.011Z,0
2017-09-25T03:33:45.607Z,0
2017-09-25T03:34:55.939Z,0
2017-09-25T03:36:05.639Z,0
2017-09-25T03:37:15.968Z,0
2017-09-25T03:38:25.989Z,0
2017-09-25T03:39:36.330Z,0
2017-09-25T03:40:46.694Z,0
2017-09-25T03:41:57.025Z,0
2017-09-25T03:43:06.748Z,0
2017-09-25T03:44:16.475Z,0
2017-09-25T03:45:26.885Z,0
2017-09-25T03:46:37.238Z,0
2017-09-25T03:47:47.576Z,0
2017-09-25T03:48:57.606Z,0
2017-09-25T03:50:07.952Z,0
2017-09-25T03:51:18.032Z,0
2017-09-25T03:52:28.373Z,0
2017-09-25T03:53:38.722Z,0
2017-09-25T03:54:49.078Z,0
2017-09-25T03:55:59.643Z,0
2017-09-25T03:57:10.024Z,0
2017-09-25T03:58:20.362Z,0
2017-09-25T03:59:30.696Z,0
2017-09-25T04:00:40.724Z,0
2017-09-25T04:01:51.079Z,0
2017-09-25T04:03:01.491Z,0
2017-09-25T04:04:11.834Z,0
2017-09-25T04:05:22.176Z,0
2017-09-25T04:06:32.557Z,0
2017-09-25T04:07:42.901Z,0
2017-09-25T04:08:52.968Z,0
2017-09-25T04:10:02.999Z,0
2017-09-25T04:11:13.048Z,0
2017-09-25T04:12:23.410Z,0
2017-09-25T04:13:33.775Z,0
2017-09-25T04:14:43.890Z,0
2017-09-25T04:15:54.273Z,0
2017-09-25T04:17:04.309Z,0
2017-09-25T04:18:14.660Z,0
2017-09-25T04:19:25.021Z,0
2017-09-25T04:20:35.094Z,0
2017-09-25T04:21:45.439Z,0
2017-09-25T04:22:55.777Z,0
2017-09-25T04:24:06.149Z,0
2017-09-25T04:25:16.507Z,0
2017-09-25T04:26:26.898Z,0
2017-09-25T04:27:36.941Z,0
2017-09-25T04:28:47.280Z,0
2017-09-25T04:29:57.627Z,0
2017-09-25T04:31:07.993Z,0
2017-09-25T04:32:18.368Z,0
2017-09-25T04:33:28.724Z,0
2017-09-25T04:34:39.065Z,0
2017-09-25T04:35:49.409Z,0
2017-09-25T04:36:59.760Z,0
2017-09-25T04:38:09.841Z,0
2017-09-25T04:39:19.565Z,0
2017-09-25T04:40:29.914Z,0
2017-09-25T04:41:40.254Z,0
2017-09-25T04:42:50.591Z,0
2017-09-25T04:44:00.358Z,0
2017-09-25T04:45:10.706Z,0
2017-09-25T04:46:20.866Z,0
2017-09-25T04:47:30.584Z,0
2017-09-25T04:48:40.933Z,0
2017-09-25T04:49:51.301Z,0
2017-09-25T04:51:01.653Z,0
2017-09-25T04:52:12.005Z,0
2017-09-25T04:53:22.348Z,0
2017-09-25T04:54:32.382Z,0
2017-09-25T04:55:42.722Z,0
2017-09-25T04:56:53.079Z,5
2017-09-25T04:58:02.790Z,5
2017-09-25T04:59:12.848Z,5
2017-09-25T05:00:22.880Z,5
2017-09-25T05:01:34.521Z,5
2017-09-25T05:02:44.861Z,5
2017-09-25T05:03:55.209Z,5
2017-09-25T05:05:05.567Z,5
2017-09-25T05:06:15.971Z,5
2017-09-25T05:07:26.388Z,5
2017-09-25T05:08:36.735Z,10
2017-09-25T05:09:47.081Z,10
2017-09-25T05:10:57.109Z,10
2017-09-25T05:12:07.136Z,10
2017-09-25T05:13:17.210Z,10
2017-09-25T05:14:27.244Z,10
2017-09-25T05:15:37.591Z,10
2017-09-25T05:16:47.947Z,10
2017-09-25T05:17:58.288Z,10
2017-09-25T05:19:08.681Z,10
2017-09-25T05:20:19.031Z,10
2017-09-25T05:21:29.369Z,15
2017-09-25T05:22:39.718Z,15
2017-09-25T05:23:49.788Z,15
2017-09-25T05:25:00.132Z,15
2017-09-25T05:26:10.150Z,15
2017-09-25T05:27:20.517Z,15
2017-09-25T05:28:31.824Z,15
2017-09-25T05:29:42.222Z,15
2017-09-25T05:30:52.256Z,15
2017-09-25T05:32:02.621Z,15
2017-09-25T05:33:12.986Z,15
2017-09-25T05:34:23.024Z,20
2017-09-25T05:35:32.728Z,20
2017-09-25T05:36:43.089Z,20
2017-09-25T05:37:53.440Z,20
2017-09-25T05:39:03.787Z,20
2017-09-25T05:40:14.137Z,20
2017-09-25T05:41:24.179Z,20
2017-09-25T05:42:34.547Z,20
2017-09-25T05:43:44.895Z,20
2017-09-25T05:44:54.614Z,20
2017-09-25T05:46:04.963Z,20
2017-09-25T05:47:15.333Z,25
2017-09-25T05:48:25.681Z,25
2017-09-25T05:49:36.541Z,25
2017-09-25T05:50:46.944Z,25
2017-09-25T05:51:57.305Z,25
2017-09-25T05:53:07.025Z,25
2017-09-25T05:54:17.393Z,25
2017-09-25T05:55:27.091Z,25
2017-09-25T05:56:37.189Z,30
2017-09-25T05:57:47.213Z,30
2017-09-25T05:58:57.575Z,30
2017-09-25T06:00:07.296Z,30
2017-09-25T06:01:17.313Z,30
2017-09-25T06:02:27.331Z,30
2017-09-25T06:03:37.658Z,35
2017-09-25T06:04:48.489Z,35
2017-09-25T06:05:58.827Z,35
2017-09-25T06:07:09.188Z,35
2017-09-25T06:08:19.585Z,35
2017-09-25T06:09:29.617Z,35
2017-09-25T06:10:39.646Z,35
2017-09-25T06:11:49.987Z,40
2017-09-25T06:13:00.034Z,40
2017-09-25T06:14:10.459Z,40
2017-09-25T06:15:20.791Z,40
2017-09-25T06:16:31.137Z,40
2017-09-25T06:17:41.184Z,40
2017-09-25T06:18:51.211Z,40
2017-09-25T06:20:01.557Z,40
2017-09-25T06:21:11.289Z,40
2017-09-25T06:22:21.617Z,40
2017-09-25T06:23:31.978Z,40
2017-09-25T06:24:42.315Z,40
2017-09-25T06:25:52.346Z,40
2017-09-25T06:27:02.383Z,40
2017-09-25T06:28:12.715Z,45
2017-09-25T06:29:23.053Z,45
2017-09-25T06:30:33.069Z,45
2017-09-25T06:31:43.095Z,50
2017-09-25T06:32:53.132Z,50
2017-09-25T06:34:03.159Z,50
2017-09-25T06:35:13.502Z,50
2017-09-25T06:36:23.858Z,50
2017-09-25T06:37:34.254Z,55
2017-09-25T06:38:44.324Z,55
2017-09-25T06:39:54.362Z,55
2017-09-25T06:41:04.403Z,55
2017-09-25T06:42:14.439Z,60
2017-09-25T06:43:24.787Z,60
2017-09-25T06:44:35.143Z,60
2017-09-25T06:45:45.475Z,65
2017-09-25T06:46:55.819Z,65
2017-09-25T06:48:06.162Z,65
2017-09-25T06:49:16.495Z,70
2017-09-25T06:50:26.838Z,70
2017-09-25T06:51:37.187Z,70
2017-09-25T06:52:47.268Z,75
2017-09-25T06:53:57.606Z,75
2017-09-25T06:55:07.651Z,75
2017-09-25T06:56:17.677Z,75
2017-09-25T06:57:28.013Z,75
2017-09-25T06:58:38.382Z,75
2017-09-25T06:59:48.727Z,75
2017-09-25T07:00:59.078Z,75
2017-09-25T07:02:09.634Z,75
2017-09-25T07:03:19.983Z,75
2017-09-25T07:04:30.394Z,75
2017-09-25T07:05:40.478Z,75
2017-09-25T07:06:50.837Z,75
2017-09-25T07:08:02.384Z,75
2017-09-25T07:09:12.458Z,75
2017-09-25T07:10:22.878Z,75
2017-09-25T07:11:32.927Z,75
2017-09-25T07:12:42.977Z,70
2017-09-25T07:13:53.325Z,70
2017-09-25T07:15:03.674Z,65
2017-09-25T07:16:14.074Z,65
2017-09-25T07:17:24.417Z,65
2017-09-25T07:18:34.477Z,65
2017-09-25T07:19:44.816Z,65
2017-09-25T07:20:55.139Z,65
2017-09-25T07:22:05.541Z,65
2017-09-25T07:23:15.905Z,65
2017-09-25T07:24:26.266Z,70
2017-09-25T07:25:36.628Z,70
2017-09-25T07:26:46.965Z,70
2017-09-25T07:27:57.361Z,70
2017-09-25T07:29:07.763Z,75
2017-09-25T07:30:18.108Z,75
2017-09-25T07:31:28.445Z,75
2017-09-25T07:32:38.837Z,75
2017-09-25T07:33:49.238Z,75
2017-09-25T07:34:59.597Z,75
2017-09-25T07:36:09.962Z,75
2017-09-25T07:37:20.303Z,75
2017-09-25T07:38:30.650Z,75
2017-09-25T07:39:40.994Z,75
2017-09-25T07:40:51.026Z,75
2017-09-25T07:42:00.741Z,75
2017-09-25T07:43:11.114Z,80
2017-09-25T07:44:21.459Z,80
2017-09-25T07:45:31.807Z,85
2017-09-25T07:46:42.162Z,85
2017-09-25T07:47:52.510Z,85
2017-09-25T07:49:02.855Z,85
2017-09-25T07:50:13.320Z,90
2017-09-25T07:51:23.711Z,95
2017-09-25T07:52:34.049Z,95
2017-09-25T07:53:44.399Z,100
2017-09-25T07:54:54.415Z,105
2017-09-25T07:56:04.441Z,105
2017-09-25T07:57:14.789Z,110
2017-09-25T07:58:24.514Z,115
2017-09-25T07:59:34.858Z,115
2017-09-25T08:00:45.208Z,115
2017-09-25T08:01:55.547Z,110
2017-09-25T08:03:05.913Z,105
2017-09-25T08:04:16.256Z,105
2017-09-25T08:05:26.291Z,110
2017-09-25T08:06:36.638Z,115
2017-09-25T08:07:46.971Z,120
2017-09-25T08:08:57.003Z,130
2017-09-25T08:10:07.350Z,130
2017-09-25T08:11:17.714Z,135
2017-09-25T08:12:28.053Z,135
2017-09-25T08:13:38.408Z,140
2017-09-25T08:14:48.811Z,140
2017-09-25T08:15:59.166Z,145
2017-09-25T08:17:09.513Z,145
2017-09-25T08:18:19.576Z,145
2017-09-25T08:19:29.922Z,150
2017-09-25T08:20:40.321Z,155
2017-09-25T08:21:50.354Z,155
2017-09-25T08:23:00.698Z,160
2017-09-25T08:24:11.048Z,160
2017-09-25T08:25:21.108Z,165
2017-09-25T08:26:31.512Z,165
2017-09-25T08:27:41.854Z,165
2017-09-25T08:28:52.214Z,160
2017-09-25T08:30:02.241Z,160
2017-09-25T08:31:12.284Z,165
2017-09-25T08:32:22.627Z,165
2017-09-25T08:33:32.973Z,170
2017-09-25T08:34:43.725Z,175
2017-09-25T08:35:53.782Z,180
2017-09-25T08:37:04.295Z,185
2017-09-25T08:38:14.696Z,190
2017-09-25T08:39:26.306Z,200
2017-09-25T08:40:36.346Z,205
2017-09-25T08:41:46.384Z,210
2017-09-25T08:42:56.726Z,215
2017-09-25T08:44:06.797Z,215
2017-09-25T08:45:16.825Z,215
2017-09-25T08:46:26.851Z,220
2017-09-25T08:47:37.205Z,220
2017-09-25T08:48:47.546Z,220
2017-09-25T08:49:57.634Z,225
2017-09-25T08:51:07.670Z,225
2017-09-25T08:52:18.013Z,225
2017-09-25T08:53:28.350Z,225
2017-09-25T08:54:38.379Z,230
2017-09-25T08:55:48.776Z,235
2017-09-25T08:56:59.107Z,245
2017-09-25T08:58:09.132Z,255
2017-09-25T08:59:19.184Z,250
2017-09-25T09:00:29.230Z,250
2017-09-25T09:01:39.629Z,250
2017-09-25T09:02:49.986Z,255
2017-09-25T09:04:00.338Z,260
2017-09-25T09:05:10.375Z,260
2017-09-25T09:06:20.426Z,265
2017-09-25T09:07:31.902Z,260
2017-09-25T09:08:41.940Z,265
2017-09-25T09:09:52.282Z,265
2017-09-25T09:11:02.640Z,260
2017-09-25T09:12:12.987Z,250
2017-09-25T09:13:23.039Z,240
2017-09-25T09:14:33.386Z,240
2017-09-25T09:15:43.753Z,240
2017-09-25T09:16:54.598Z,235
2017-09-25T09:18:04.955Z,235
2017-09-25T09:19:15.372Z,245
2017-09-25T09:20:25.742Z,260
2017-09-25T09:21:35.773Z,260
2017-09-25T09:22:45.806Z,250
2017-09-25T09:23:56.153Z,260
2017-09-25T09:25:06.555Z,255
2017-09-25T09:26:16.912Z,250
2017-09-25T09:27:27.265Z,230
2017-09-25T09:28:37.637Z,245
2017-09-25T09:29:47.983Z,245
2017-09-25T09:30:58.378Z,265
2017-09-25T09:32:08.735Z,285
2017-09-25T09:33:18.469Z,295
2017-09-25T09:34:28.520Z,300
2017-09-25T09:35:38.881Z,305
2017-09-25T09:36:48.939Z,250
2017-09-25T09:37:59.336Z,240
2017-09-25T09:39:09.691Z,280
2017-09-25T09:40:19.729Z,305
2017-09-25T09:41:29.784Z,295
2017-09-25T09:42:39.862Z,300
2017-09-25T09:43:50.237Z,225
2017-09-25T09:45:00.284Z,240
2017-09-25T09:46:10.640Z,225
2017-09-25T09:47:21.884Z,305
2017-09-25T09:48:32.176Z,300
2017-09-25T09:49:42.256Z,305
2017-09-25T09:50:52.614Z,310
2017-09-25T09:52:02.983Z,305
2017-09-25T09:53:13.385Z,290
2017-09-25T09:54:23.833Z,210
2017-09-25T09:55:34.398Z,210
2017-09-25T09:56:45.183Z,200
2017-09-25T09:57:55.223Z,195
2017-09-25T09:59:05.262Z,190
2017-09-25T10:00:15.364Z,190
2017-09-25T10:01:25.729Z,190
2017-09-25T10:02:36.077Z,250
2017-09-25T10:03:47.561Z,190
2017-09-25T10:04:57.607Z,280
2017-09-25T10:06:08.013Z,270
2017-09-25T10:07:18.368Z,260
2017-09-25T10:08:28.401Z,260
2017-09-25T10:09:38.744Z,255
2017-09-25T10:10:48.792Z,215
2017-09-25T10:11:59.201Z,220
2017-09-25T10:13:09.228Z,275
2017-09-25T10:14:19.264Z,285
2017-09-25T10:15:29.629Z,190
2017-09-25T10:16:40.003Z,185
2017-09-25T10:17:50.419Z,185
2017-09-25T10:19:00.147Z,200
2017-09-25T10:20:09.884Z,210
2017-09-25T10:21:19.596Z,220
2017-09-25T10:22:29.965Z,215
2017-09-25T10:23:40.365Z,225
2017-09-25T10:24:50.732Z,235
2017-09-25T10:26:01.107Z,245
2017-09-25T10:27:11.454Z,245
2017-09-25T10:28:21.811Z,315
2017-09-25T10:29:32.236Z,275
2017-09-25T10:30:42.600Z,280
2017-09-25T10:31:52.955Z,245
2017-09-25T10:33:07.192Z,280
2017-09-25T10:34:18.283Z,280
2017-09-25T10:35:28.671Z,275
2017-09-25T10:36:39.042Z,215
2017-09-25T10:37:49.419Z,230
2017-09-25T10:38:59.463Z,255
2017-09-25T10:40:09.832Z,170
2017-09-25T10:41:19.933Z,175
2017-09-25T10:42:30.307Z,250
2017-09-25T10:43:40.674Z,265
2017-09-25T10:44:50.730Z,240
2017-09-25T10:46:01.108Z,260
2017-09-25T10:47:11.228Z,275
2017-09-25T10:48:21.597Z,270
2017-09-25T10:49:31.950Z,270
2017-09-25T10:50:42.300Z,280
2017-09-25T10:51:52.634Z,275
2017-09-25T10:53:03.034Z,275
2017-09-25T10:54:13.407Z,265
2017-09-25T10:55:23.753Z,185
2017-09-25T10:56:34.109Z,170
2017-09-25T10:57:44.145Z,160
2017-09-25T10:58:54.541Z,155
2017-09-25T11:00:04.581Z,155
2017-09-25T11:01:14.931Z,155
2017-09-25T11:02:24.974Z,160
2017-09-25T11:03:35.327Z,160
2017-09-25T11:04:45.690Z,165
2017-09-25T11:05:56.059Z,160
2017-09-25T11:07:06.119Z,160
2017-09-25T11:08:16.468Z,155
2017-09-25T11:09:26.814Z,155
2017-09-25T11:10:37.171Z,155
2017-09-25T11:11:47.547Z,160
2017-09-25T11:12:57.933Z,165
2017-09-25T11:14:08.280Z,175
2017-09-25T11:15:18.639Z,175
2017-09-25T11:16:29.007Z,175
2017-09-25T11:17:39.969Z,180
2017-09-25T11:18:50.328Z,180
2017-09-25T11:20:00.683Z,175
2017-09-25T11:21:11.021Z,170
2017-09-25T11:22:21.057Z,160
2017-09-25T11:23:31.401Z,160
2017-09-25T11:24:41.746Z,160
2017-09-25T11:25:52.088Z,160
2017-09-25T11:27:02.105Z,165
2017-09-25T11:28:12.499Z,175
2017-09-25T11:29:22.228Z,180
2017-09-25T11:30:32.580Z,190
2017-09-25T11:31:42.947Z,200
2017-09-25T11:32:53.313Z,210
2017-09-25T11:34:03.396Z,245
2017-09-25T11:35:13.468Z,250
2017-09-25T11:36:23.500Z,315
2017-09-25T11:37:33.850Z,280
2017-09-25T11:38:44.223Z,340
2017-09-25T11:39:54.260Z,295
2017-09-25T11:41:04.316Z,250
2017-09-25T11:42:14.347Z,285
2017-09-25T11:43:24.694Z,305
2017-09-25T11:44:35.048Z,255
2017-09-25T11:45:45.094Z,200
2017-09-25T11:46:55.469Z,170
2017-09-25T11:48:05.493Z,245
2017-09-25T11:49:15.858Z,275
2017-09-25T11:50:25.897Z,250
2017-09-25T11:51:36.297Z,170
2017-09-25T11:52:46.005Z,165
2017-09-25T11:53:56.030Z,180
2017-09-25T11:55:06.397Z,195
2017-09-25T11:56:16.748Z,200
2017-09-25T11:57:27.148Z,250
2017-09-25T11:58:38.294Z,280
2017-09-25T11:59:48.664Z,185
2017-09-25T12:00:58.633Z,175
2017-09-25T12:02:08.673Z,175
2017-09-25T12:03:19.032Z,180
2017-09-25T12:04:29.394Z,180
2017-09-25T12:05:39.731Z,250
2017-09-25T12:06:50.079Z,280
2017-09-25T12:08:00.447Z,195
2017-09-25T12:09:10.508Z,200
2017-09-25T12:10:20.881Z,200
2017-09-25T12:11:30.911Z,180
2017-09-25T12:12:41.269Z,170
2017-09-25T12:13:51.618Z,170
2017-09-25T12:15:02.021Z,165
2017-09-25T12:16:12.372Z,165
2017-09-25T12:17:22.737Z,165
2017-09-25T12:18:33.078Z,165
2017-09-25T12:19:43.110Z,180
2017-09-25T12:20:53.475Z,190
2017-09-25T12:22:03.842Z,240
2017-09-25T12:23:14.214Z,190
2017-09-25T12:24:24.231Z,190
2017-09-25T12:25:34.265Z,190
2017-09-25T12:26:44.354Z,225
2017-09-25T12:27:54.374Z,175
2017-09-25T12:29:04.720Z,150
2017-09-25T12:30:15.072Z,135
2017-09-25T12:31:25.414Z,130
2017-09-25T12:32:35.809Z,135
2017-09-25T12:33:46.176Z,130
2017-09-25T12:34:56.526Z,130
2017-09-25T12:36:06.569Z,140
2017-09-25T12:37:16.910Z,150
2017-09-25T12:38:27.007Z,150
2017-09-25T12:39:37.046Z,155
2017-09-25T12:40:47.397Z,155
2017-09-25T12:41:57.421Z,155
2017-09-25T12:43:07.468Z,155
2017-09-25T12:44:17.508Z,155
2017-09-25T12:45:27.874Z,170
2017-09-25T12:46:37.904Z,175
2017-09-25T12:47:48.241Z,180
2017-09-25T12:48:58.278Z,175
2017-09-25T12:50:08.682Z,170
2017-09-25T12:51:19.029Z,165
2017-09-25T12:52:29.389Z,175
2017-09-25T12:53:39.667Z,245
2017-09-25T12:54:50.039Z,250
2017-09-25T12:56:00.393Z,185
2017-09-25T12:57:10.429Z,180
2017-09-25T12:58:20.467Z,180
2017-09-25T12:59:30.823Z,180
2017-09-25T13:00:41.180Z,190
2017-09-25T13:01:51.252Z,165
2017-09-25T13:03:01.275Z,165
2017-09-25T13:04:11.641Z,160
2017-09-25T13:05:21.999Z,160
2017-09-25T13:06:32.354Z,160
2017-09-25T13:07:42.745Z,150
2017-09-25T13:08:53.099Z,165
2017-09-25T13:10:03.129Z,150
2017-09-25T13:11:13.493Z,155
2017-09-25T13:12:23.537Z,165
2017-09-25T13:13:33.637Z,180
2017-09-25T13:14:43.990Z,185
2017-09-25T13:15:54.338Z,210
2017-09-25T13:17:04.060Z,225
2017-09-25T13:18:14.098Z,195
2017-09-25T13:19:24.444Z,185
2017-09-25T13:20:34.791Z,250
2017-09-25T13:21:44.833Z,235
2017-09-25T13:22:55.200Z,220
2017-09-25T13:24:05.555Z,225
2017-09-25T13:25:16.015Z,165
2017-09-25T13:26:26.388Z,155
2017-09-25T13:27:36.732Z,160
2017-09-25T13:28:46.773Z,180
2017-09-25T13:29:56.844Z,200
2017-09-25T13:31:06.931Z,160
2017-09-25T13:32:16.970Z,205
2017-09-25T13:33:27.337Z,160
2017-09-25T13:34:37.680Z,160
2017-09-25T13:35:48.029Z,160
2017-09-25T13:36:58.074Z,160
2017-09-25T13:38:08.421Z,170
2017-09-25T13:39:18.776Z,160
2017-09-25T13:40:29.128Z,155
2017-09-25T13:41:39.491Z,150
2017-09-25T13:42:49.581Z,140
2017-09-25T13:43:59.922Z,140
2017-09-25T13:45:10.289Z,135
2017-09-25T13:46:20.326Z,140
2017-09-25T13:47:30.681Z,140
2017-09-25T13:48:41.128Z,145
2017-09-25T13:49:51.490Z,135
2017-09-25T13:51:01.550Z,125
2017-09-25T13:52:11.587Z,120
2017-09-25T13:53:21.963Z,125
2017-09-25T13:54:32.361Z,160
2017-09-25T13:55:42.710Z,165
2017-09-25T13:56:53.071Z,150
2017-09-25T13:58:03.427Z,145
2017-09-25T14:03:02.335Z,100
2017-09-25T14:04:12.702Z,145
2017-09-25T14:05:22.906Z,125
2017-09-25T14:06:33.382Z,135
2017-09-25T14:07:43.540Z,155
2017-09-25T14:10:09.855Z,155
2017-09-25T14:11:20.281Z,115
2017-09-25T14:12:30.319Z,110
2017-09-25T14:13:40.656Z,115
2017-09-25T14:14:50.700Z,110
2017-09-25T14:16:01.108Z,115
2017-09-25T14:17:11.475Z,115
2017-09-25T14:18:21.505Z,120
2017-09-25T14:19:31.548Z,170
2017-09-25T14:20:41.892Z,165
2017-09-25T14:21:52.255Z,170
2017-09-25T14:23:02.345Z,175
2017-09-25T14:24:12.742Z,165
2017-09-25T14:25:23.109Z,165
2017-09-25T14:26:33.458Z,160
2017-09-25T14:27:44.659Z,155
2017-09-25T14:28:55.403Z,155
2017-09-25T14:30:05.747Z,160
2017-09-25T14:31:16.120Z,150
2017-09-25T14:32:26.485Z,150
2017-09-25T14:33:36.522Z,150
2017-09-25T14:34:46.977Z,150
2017-09-25T14:35:57.317Z,150
2017-09-25T14:37:07.664Z,150
2017-09-25T14:38:17.725Z,150
2017-09-25T14:39:27.794Z,145
2017-09-25T14:40:38.199Z,145
2017-09-25T14:41:48.565Z,140
2017-09-25T14:42:58.272Z,140
2017-09-25T14:44:08.300Z,140
2017-09-25T14:45:18.654Z,135
2017-09-25T14:46:28.743Z,135
2017-09-25T14:47:39.081Z,135
2017-09-25T14:48:49.434Z,135
2017-09-25T14:49:59.481Z,135
2017-09-25T14:51:09.829Z,135
2017-09-25T14:52:20.240Z,135
2017-09-25T14:53:30.593Z,125
2017-09-25T14:54:40.937Z,125
2017-09-25T14:55:51.302Z,125
2017-09-25T14:57:01.663Z,120
2017-09-25T14:58:12.013Z,120
2017-09-25T14:59:22.375Z,120
2017-09-25T15:00:32.737Z,110
2017-09-25T15:01:42.792Z,115
2017-09-25T15:02:52.806Z,115
2017-09-25T15:04:02.842Z,110
2017-09-25T15:05:12.865Z,115
2017-09-25T15:06:23.232Z,110
2017-09-25T15:07:33.618Z,110
2017-09-25T15:08:43.662Z,110
2017-09-25T15:09:53.775Z,105
2017-09-25T15:11:04.130Z,90
2017-09-25T15:12:14.480Z,105
2017-09-25T15:13:24.519Z,100
2017-09-25T15:14:34.898Z,100
2017-09-25T15:15:45.308Z,80
2017-09-25T15:16:55.656Z,75
2017-09-25T15:18:06.016Z,75
2017-09-25T15:19:16.374Z,75
2017-09-25T15:20:26.424Z,75
2017-09-25T15:21:36.832Z,95
2017-09-25T15:22:47.183Z,95
2017-09-25T15:23:57.205Z,90
2017-09-25T15:25:07.574Z,90
2017-09-25T15:26:17.298Z,90
2017-09-25T15:27:27.707Z,90
2017-09-25T15:28:37.727Z,90
2017-09-25T15:29:47.768Z,90
2017-09-25T15:30:57.804Z,85
2017-09-25T15:32:08.135Z,85
2017-09-25T15:33:18.540Z,85
2017-09-25T15:34:28.924Z,85
2017-09-25T15:35:38.940Z,85
2017-09-25T15:36:49.202Z,85
2017-09-25T15:37:59.252Z,85
2017-09-25T15:39:09.639Z,85
2017-09-25T15:40:19.996Z,70
2017-09-25T15:41:30.347Z,80
2017-09-25T15:42:40.675Z,80
2017-09-25T15:43:50.712Z,80
2017-09-25T15:45:01.159Z,80
2017-09-25T15:46:11.200Z,75
2017-09-25T15:47:21.572Z,75
2017-09-25T15:48:31.579Z,75
2017-09-25T15:49:41.936Z,75
2017-09-25T15:50:52.362Z,75
2017-09-25T15:52:02.384Z,75
2017-09-25T15:53:13.144Z,70
2017-09-25T15:54:23.177Z,70
2017-09-25T15:55:33.206Z,65
2017-09-25T15:56:43.593Z,65
2017-09-25T15:57:53.334Z,65
2017-09-25T15:59:03.362Z,60
2017-09-25T16:00:13.070Z,60
2017-09-25T16:01:23.457Z,60
2017-09-25T16:02:33.844Z,55
2017-09-25T16:03:44.188Z,55
2017-09-25T16:04:54.549Z,55
2017-09-25T16:06:04.901Z,50
2017-09-25T16:07:15.244Z,50
2017-09-25T16:08:25.599Z,45
2017-09-25T16:09:35.950Z,45
2017-09-25T16:10:46.311Z,45
2017-09-25T16:11:56.338Z,40
2017-09-25T16:13:06.678Z,40
2017-09-25T16:14:17.076Z,40
2017-09-25T16:15:27.423Z,40
2017-09-25T16:16:37.784Z,40
2017-09-25T16:17:48.168Z,35
2017-09-25T16:18:58.524Z,35
2017-09-25T16:20:08.923Z,30
2017-09-25T16:21:19.259Z,30
2017-09-25T16:22:29.608Z,30
2017-09-25T16:23:39.647Z,25
2017-09-25T16:24:50.003Z,25
2017-09-25T16:25:59.783Z,25
2017-09-25T16:27:09.495Z,20
2017-09-25T16:28:19.860Z,20
2017-09-25T16:29:30.205Z,20
2017-09-25T16:30:40.251Z,15
2017-09-25T16:31:50.651Z,15
2017-09-25T16:33:00.688Z,15
2017-09-25T16:34:11.057Z,10
2017-09-25T16:35:21.423Z,10
2017-09-25T16:36:31.779Z,10
2017-09-25T16:37:42.138Z,10
2017-09-25T16:38:52.184Z,10
2017-09-25T16:40:02.224Z,5
2017-09-25T16:41:12.592Z,5
2017-09-25T16:42:22.950Z,5
2017-09-25T16:43:33.552Z,5
2017-09-25T16:44:43.889Z,5
2017-09-25T16:45:54.246Z,5
2017-09-25T16:47:04.619Z,0
2017-09-25T16:48:14.666Z,0
2017-09-25T16:49:24.790Z,0
2017-09-25T16:50:35.183Z,0
2017-09-25T16:51:45.529Z,0
2017-09-25T16:52:55.875Z,0
2017-09-25T16:54:05.641Z,0
2017-09-25T16:55:16.007Z,0
2017-09-25T16:56:26.382Z,0
2017-09-25T16:57:36.767Z,0
2017-09-25T16:58:47.119Z,0
2017-09-25T16:59:57.132Z,0
2017-09-25T17:01:07.506Z,0
2017-09-25T17:02:17.542Z,0
2017-09-25T17:03:27.584Z,0
2017-09-25T17:04:37.945Z,0
2017-09-25T17:05:48.336Z,0
2017-09-25T17:06:58.699Z,0
2017-09-25T17:08:08.783Z,0
2017-09-25T17:09:19.153Z,0
2017-09-25T17:10:29.494Z,0
2017-09-25T17:11:39.872Z,0
2017-09-25T17:12:50.319Z,0